Time,TemperatureF,DewpointF,PressureIn,WindDirection,WindDirectionDegrees,WindSpeedMPH,WindSpeedGustMPH,Humidity,HourlyPrecipIn,Conditions,Clouds,dailyrainin,SoftwareType,DateUTC
2013-05-15 00:02:00,51.8,23.6,29.26,WSW,254,6.7,7.4,33,0.00,,---,0.00,VWS V14.01,2013-05-15 07:02:00,
2013-05-15 00:07:00,52.0,23.8,29.26,West,269,4.5,5.8,33,0.00,,---,0.00,VWS V14.01,2013-05-15 07:07:00,
2013-05-15 00:12:00,52.0,23.8,29.26,West,268,4.5,6.9,33,0.00,,---,0.00,VWS V14.01,2013-05-15 07:12:00,
2013-05-15 00:17:00,52.0,24.5,29.26,SW,236,7.8,9.2,34,0.00,,---,0.00,VWS V14.01,2013-05-15 07:17:00,
2013-05-15 00:22:00,52.0,23.8,29.26,WSW,256,7.4,7.4,33,0.00,,---,0.00,VWS V14.01,2013-05-15 07:22:00,
2013-05-15 00:27:00,51.8,25.0,29.26,West,268,7.4,8.3,35,0.00,,---,0.00,VWS V14.01,2013-05-15 07:27:00,
2013-05-15 00:32:00,51.6,24.9,29.26,West,264,6.3,8.7,35,0.00,,---,0.00,VWS V14.01,2013-05-15 07:32:00,
2013-05-15 00:38:00,51.6,25.6,29.26,WSW,253,8.7,9.2,36,0.00,,---,0.00,VWS V14.01,2013-05-15 07:38:00,
2013-05-15 00:43:00,51.4,25.4,29.26,West,271,7.4,9.6,36,0.00,,---,0.00,VWS V14.01,2013-05-15 07:43:00,
2013-05-15 00:48:00,51.3,25.2,29.26,West,267,7.4,7.8,36,0.00,,---,0.00,VWS V14.01,2013-05-15 07:48:00,
2013-05-15 00:53:00,51.1,25.1,29.26,WSW,257,6.7,7.8,36,0.00,,---,0.00,VWS V14.01,2013-05-15 07:53:00,
2013-05-15 00:58:00,51.1,25.1,29.26,West,267,8.3,8.7,36,0.00,,---,0.00,VWS V14.01,2013-05-15 07:58:00,
2013-05-15 01:03:00,50.9,25.6,29.26,West,262,5.8,6.9,37,0.00,,---,0.00,VWS V14.01,2013-05-15 08:03:00,
2013-05-15 01:08:00,50.9,25.6,29.26,WSW,256,6.7,10.1,37,0.00,,---,0.00,VWS V14.01,2013-05-15 08:08:00,
2013-05-15 01:13:00,50.9,25.6,29.26,WSW,248,6.7,6.9,37,0.00,,---,0.00,VWS V14.01,2013-05-15 08:13:00,
2013-05-15 01:18:00,50.9,26.2,29.26,West,261,6.9,7.8,38,0.00,,---,0.00,VWS V14.01,2013-05-15 08:18:00,
2013-05-15 01:23:00,50.9,25.6,29.26,WSW,238,7.8,9.6,37,0.00,,---,0.00,VWS V14.01,2013-05-15 08:23:00,
2013-05-15 01:28:00,50.9,25.6,29.26,SW,233,7.8,8.7,37,0.00,,---,0.00,VWS V14.01,2013-05-15 08:28:00,
2013-05-15 01:33:00,50.7,25.4,29.26,WSW,247,7.8,9.2,37,0.00,,---,0.00,VWS V14.01,2013-05-15 08:33:00,
2013-05-15 01:38:00,50.9,25.6,29.26,SW,228,7.8,9.6,37,0.00,,---,0.00,VWS V14.01,2013-05-15 08:38:00,
2013-05-15 01:43:00,51.1,25.7,29.26,WSW,242,7.4,8.3,37,0.00,,---,0.00,VWS V14.01,2013-05-15 08:43:00,
2013-05-15 01:48:00,51.3,25.9,29.23,SW,236,8.7,10.1,37,0.00,,---,0.00,VWS V14.01,2013-05-15 08:48:00,
2013-05-15 01:53:00,51.3,25.9,29.23,WSW,244,6.7,10.1,37,0.00,,---,0.00,VWS V14.01,2013-05-15 08:53:00,
2013-05-15 01:58:00,50.9,24.9,29.23,WSW,243,4.9,6.7,36,0.00,,---,0.00,VWS V14.01,2013-05-15 08:58:00,
2013-05-15 02:03:00,50.5,25.2,29.23,WSW,239,6.3,9.6,37,0.00,,---,0.00,VWS V14.01,2013-05-15 09:03:00,
2013-05-15 02:08:00,50.4,25.7,29.23,WSW,237,6.7,6.9,38,0.00,,---,0.00,VWS V14.01,2013-05-15 09:08:00,
2013-05-15 02:13:00,50.4,25.7,29.23,SW,235,5.8,6.3,38,0.00,,---,0.00,VWS V14.01,2013-05-15 09:13:00,
2013-05-15 02:18:00,50.2,25.6,29.23,WSW,258,5.4,8.7,38,0.00,,---,0.00,VWS V14.01,2013-05-15 09:18:00,
2013-05-15 02:23:00,50.2,26.2,29.23,WSW,241,7.8,10.5,39,0.00,,---,0.00,VWS V14.01,2013-05-15 09:23:00,
2013-05-15 02:28:00,50.2,26.2,29.23,WSW,239,6.3,7.8,39,0.00,,---,0.00,VWS V14.01,2013-05-15 09:28:00,
2013-05-15 02:33:00,50.2,26.2,29.23,SW,236,8.3,9.2,39,0.00,,---,0.00,VWS V14.01,2013-05-15 09:33:00,
2013-05-15 02:38:00,50.4,26.4,29.23,SW,227,7.4,8.3,39,0.00,,---,0.00,VWS V14.01,2013-05-15 09:38:00,
2013-05-15 02:43:00,50.4,25.7,29.23,SW,236,7.4,8.3,38,0.00,,---,0.00,VWS V14.01,2013-05-15 09:43:00,
2013-05-15 02:48:00,50.2,26.2,29.23,SW,227,5.8,8.3,39,0.00,,---,0.00,VWS V14.01,2013-05-15 09:48:00,
2013-05-15 02:53:00,50.4,26.4,29.23,WSW,238,6.3,8.3,39,0.00,,---,0.00,VWS V14.01,2013-05-15 09:53:00,
2013-05-15 02:58:00,50.2,25.6,29.23,WSW,243,6.7,7.8,38,0.00,,---,0.00,VWS V14.01,2013-05-15 09:58:00,
2013-05-15 03:03:00,49.8,25.9,29.23,WSW,253,7.4,7.4,39,0.00,,---,0.00,VWS V14.01,2013-05-15 10:03:00,
2013-05-15 03:08:00,49.6,26.3,29.23,WSW,250,6.3,7.4,40,0.00,,---,0.00,VWS V14.01,2013-05-15 10:08:00,
2013-05-15 03:13:00,49.5,26.2,29.23,West,262,6.3,8.7,40,0.00,,---,0.00,VWS V14.01,2013-05-15 10:13:00,
2013-05-15 03:18:00,49.5,27.3,29.23,WSW,242,9.2,10.5,42,0.00,,---,0.00,VWS V14.01,2013-05-15 10:18:00,
2013-05-15 03:23:00,49.8,27.1,29.23,WSW,245,7.4,10.1,41,0.00,,---,0.00,VWS V14.01,2013-05-15 10:23:00,
2013-05-15 03:28:00,49.8,26.5,29.23,WSW,242,9.6,9.6,40,0.00,,---,0.00,VWS V14.01,2013-05-15 10:28:00,
2013-05-15 03:33:00,49.8,26.5,29.26,WSW,240,8.3,10.1,40,0.00,,---,0.00,VWS V14.01,2013-05-15 10:33:00,
2013-05-15 03:38:00,50.2,26.8,29.26,SW,226,7.8,8.3,40,0.00,,---,0.00,VWS V14.01,2013-05-15 10:38:00,
2013-05-15 03:43:00,50.5,26.5,29.26,SW,233,5.8,6.9,39,0.00,,---,0.00,VWS V14.01,2013-05-15 10:43:00,
2013-05-15 03:48:00,50.4,26.4,29.26,SW,219,6.3,6.3,39,0.00,,---,0.00,VWS V14.01,2013-05-15 10:48:00,
2013-05-15 03:53:00,50.0,26.0,29.26,SW,227,6.7,6.7,39,0.00,,---,0.00,VWS V14.01,2013-05-15 10:53:00,
2013-05-15 03:58:00,50.2,26.8,29.26,WSW,242,4.9,6.9,40,0.00,,---,0.00,VWS V14.01,2013-05-15 10:58:00,
2013-05-15 04:06:00,50.0,26.6,29.26,SW,231,6.9,8.3,40,0.00,,---,0.00,VWS V14.01,2013-05-15 11:06:00,
2013-05-15 04:11:00,49.5,25.5,29.26,WSW,252,5.8,6.3,39,0.00,,---,0.00,VWS V14.01,2013-05-15 11:11:00,
2013-05-15 04:16:00,49.1,26.4,29.26,WSW,240,3.1,4.9,41,0.00,,---,0.00,VWS V14.01,2013-05-15 11:16:00,
2013-05-15 04:22:00,48.9,26.9,29.26,West,269,4.0,5.8,42,0.00,,---,0.00,VWS V14.01,2013-05-15 11:22:00,
2013-05-15 04:27:00,48.9,26.9,29.26,West,265,2.7,6.9,42,0.00,,---,0.00,VWS V14.01,2013-05-15 11:27:00,
2013-05-15 04:32:00,48.7,26.7,29.26,WSW,250,4.5,5.4,42,0.00,,---,0.00,VWS V14.01,2013-05-15 11:32:00,
2013-05-15 04:37:00,48.7,26.7,29.26,WSW,246,6.9,7.4,42,0.00,,---,0.00,VWS V14.01,2013-05-15 11:37:00,
2013-05-15 04:42:00,49.3,27.2,29.26,WSW,248,8.3,11.2,42,0.00,,---,0.00,VWS V14.01,2013-05-15 11:42:00,
2013-05-15 04:47:00,50.2,26.2,29.26,WSW,250,9.2,11.2,39,0.00,,---,0.00,VWS V14.01,2013-05-15 11:47:00,
2013-05-15 04:53:00,50.9,25.6,29.26,SW,231,10.5,11.2,37,0.00,,---,0.00,VWS V14.01,2013-05-15 11:53:00,
2013-05-15 04:58:00,51.1,25.1,29.26,WSW,238,8.7,9.2,36,0.00,,---,0.00,VWS V14.01,2013-05-15 11:58:00,
2013-05-15 05:03:00,51.3,23.9,29.26,SW,233,12.1,14.8,34,0.00,,---,0.00,VWS V14.01,2013-05-15 12:03:00,
2013-05-15 05:08:00,51.4,22.6,29.26,SW,235,8.3,11.2,32,0.00,,---,0.00,VWS V14.01,2013-05-15 12:08:00,
2013-05-15 05:13:00,51.3,23.2,29.26,WSW,254,13.9,15.2,33,0.00,,---,0.00,VWS V14.01,2013-05-15 12:13:00,
2013-05-15 05:18:00,51.3,22.4,29.26,WSW,243,10.1,11.6,32,0.00,,---,0.00,VWS V14.01,2013-05-15 12:18:00,
2013-05-15 05:23:00,50.9,22.1,29.26,WSW,237,7.4,7.8,32,0.00,,---,0.00,VWS V14.01,2013-05-15 12:23:00,
2013-05-15 05:28:00,51.1,22.3,29.26,SW,230,7.4,10.1,32,0.00,,---,0.00,VWS V14.01,2013-05-15 12:28:00,
2013-05-15 05:33:00,50.7,22.0,29.26,WSW,247,8.3,8.7,32,0.00,,---,0.00,VWS V14.01,2013-05-15 12:33:00,
2013-05-15 05:38:00,50.9,22.1,29.26,SW,233,10.5,10.5,32,0.00,,---,0.00,VWS V14.01,2013-05-15 12:38:00,
2013-05-15 05:44:00,51.3,21.7,29.26,SW,236,8.7,11.0,31,0.00,,---,0.00,VWS V14.01,2013-05-15 12:44:00,
2013-05-15 05:50:00,50.4,21.6,29.26,West,264,6.7,6.9,32,0.00,,---,0.00,VWS V14.01,2013-05-15 12:50:00,
2013-05-15 05:56:00,49.5,20.9,29.26,West,271,5.4,5.8,32,0.00,,---,0.00,VWS V14.01,2013-05-15 12:56:00,
2013-05-15 06:01:00,48.9,23.2,29.26,West,265,6.3,6.3,36,0.00,,---,0.00,VWS V14.01,2013-05-15 13:01:00,
2013-05-15 06:06:00,48.6,23.5,29.26,WSW,250,4.0,5.4,37,0.00,,---,0.00,VWS V14.01,2013-05-15 13:06:00,
2013-05-15 06:11:00,48.6,24.7,29.26,WSW,250,4.0,7.4,39,0.00,,---,0.00,VWS V14.01,2013-05-15 13:11:00,
2013-05-15 06:17:00,48.7,26.1,29.26,West,275,5.4,6.7,41,0.00,,---,0.00,VWS V14.01,2013-05-15 13:17:00,
2013-05-15 06:22:00,48.9,26.9,29.26,West,270,4.9,5.4,42,0.00,,---,0.00,VWS V14.01,2013-05-15 13:22:00,
2013-05-15 06:27:00,50.2,29.7,29.26,WSW,241,7.4,11.6,45,0.00,,---,0.00,VWS V14.01,2013-05-15 13:27:00,
2013-05-15 06:32:00,52.2,28.0,29.26,WSW,248,7.8,10.1,39,0.00,,---,0.00,VWS V14.01,2013-05-15 13:32:00,
2013-05-15 06:37:00,53.8,26.8,29.26,WSW,255,7.4,11.0,35,0.00,,---,0.00,VWS V14.01,2013-05-15 13:37:00,
2013-05-15 06:42:00,54.3,24.4,29.26,WSW,249,10.5,11.2,31,0.00,,---,0.00,VWS V14.01,2013-05-15 13:42:00,
2013-05-15 06:47:00,53.1,23.2,29.26,West,259,11.0,11.6,31,0.00,,---,0.00,VWS V14.01,2013-05-15 13:47:00,
2013-05-15 06:52:00,52.7,22.9,29.26,WSW,250,8.3,12.5,31,0.00,,---,0.00,VWS V14.01,2013-05-15 13:52:00,
2013-05-15 06:57:00,52.5,23.5,29.26,WSW,257,5.4,9.6,32,0.00,,---,0.00,VWS V14.01,2013-05-15 13:57:00,
2013-05-15 07:02:00,52.5,23.5,29.26,WSW,251,10.5,10.5,32,0.00,,---,0.00,VWS V14.01,2013-05-15 14:02:00,
2013-05-15 07:07:00,52.7,23.7,29.26,WSW,250,6.7,10.5,32,0.00,,---,0.00,VWS V14.01,2013-05-15 14:07:00,
2013-05-15 07:12:00,53.2,23.4,29.26,SW,229,5.8,7.4,31,0.00,,---,0.00,VWS V14.01,2013-05-15 14:12:00,
2013-05-15 07:18:00,53.6,22.9,29.26,SW,233,8.7,8.7,30,0.00,,---,0.00,VWS V14.01,2013-05-15 14:18:00,
2013-05-15 07:24:00,53.6,22.9,29.26,SW,217,11.2,13.4,30,0.00,,---,0.00,VWS V14.01,2013-05-15 14:24:00,
2013-05-15 07:29:00,54.0,22.5,29.26,SW,225,9.6,13.0,29,0.00,,---,0.00,VWS V14.01,2013-05-15 14:29:00,
2013-05-15 07:34:00,53.8,22.3,29.26,SW,231,10.5,13.9,29,0.00,,---,0.00,VWS V14.01,2013-05-15 14:34:00,
2013-05-15 07:39:00,53.8,22.3,29.26,SW,224,12.5,12.5,29,0.00,,---,0.00,VWS V14.01,2013-05-15 14:39:00,
2013-05-15 07:44:00,54.1,22.6,29.26,WSW,252,13.9,13.9,29,0.00,,---,0.00,VWS V14.01,2013-05-15 14:44:00,
2013-05-15 07:50:00,54.5,22.1,29.26,SW,231,11.6,12.1,28,0.00,,---,0.00,VWS V14.01,2013-05-15 14:50:00,
2013-05-15 07:55:00,54.7,22.2,29.26,SW,233,13.4,14.8,28,0.00,,---,0.00,VWS V14.01,2013-05-15 14:55:00,
2013-05-15 08:00:00,55.0,21.7,29.26,WSW,254,12.1,12.5,27,0.00,,---,0.00,VWS V14.01,2013-05-15 15:00:00,
2013-05-15 08:05:00,55.4,22.0,29.26,SW,222,7.8,12.1,27,0.00,,---,0.00,VWS V14.01,2013-05-15 15:05:00,
2013-05-15 08:10:00,56.7,22.2,29.26,SW,230,8.7,12.1,26,0.00,,---,0.00,VWS V14.01,2013-05-15 15:10:00,
2013-05-15 08:16:00,56.7,22.2,29.26,SW,231,11.2,13.0,26,0.00,,---,0.00,VWS V14.01,2013-05-15 15:16:00,
2013-05-15 08:21:00,57.2,21.7,29.26,SW,226,11.2,15.9,25,0.00,,---,0.00,VWS V14.01,2013-05-15 15:21:00,
2013-05-15 08:27:00,57.9,22.3,29.26,WSW,252,13.9,16.3,25,0.00,,---,0.00,VWS V14.01,2013-05-15 15:27:00,
2013-05-15 08:32:00,57.6,22.0,29.26,WSW,239,13.4,13.9,25,0.00,,---,0.00,VWS V14.01,2013-05-15 15:32:00,
2013-05-15 08:38:00,58.1,22.5,29.26,SW,230,14.3,14.3,25,0.00,,---,0.00,VWS V14.01,2013-05-15 15:38:00,
2013-05-15 08:43:00,58.6,22.0,29.26,SW,221,12.5,12.5,24,0.00,,---,0.00,VWS V14.01,2013-05-15 15:43:00,
2013-05-15 08:49:00,59.2,22.4,29.26,West,261,11.0,12.1,24,0.00,,---,0.00,VWS V14.01,2013-05-15 15:49:00,
2013-05-15 08:54:00,60.1,23.2,29.26,SW,234,11.6,12.5,24,0.00,,---,0.00,VWS V14.01,2013-05-15 15:54:00,
2013-05-15 08:59:00,61.2,24.1,29.26,SW,236,14.8,14.8,24,0.00,,---,0.00,VWS V14.01,2013-05-15 15:59:00,
2013-05-15 09:05:00,61.3,24.3,29.26,WSW,238,11.6,13.4,24,0.00,,---,0.00,VWS V14.01,2013-05-15 16:05:00,
2013-05-15 09:10:00,61.5,21.2,29.26,WSW,247,11.2,11.2,21,0.00,,---,0.00,VWS V14.01,2013-05-15 16:10:00,
2013-05-15 09:16:00,60.4,23.5,29.26,SW,236,14.8,14.8,24,0.00,,---,0.00,VWS V14.01,2013-05-15 16:16:00,
2013-05-15 09:21:00,60.6,23.6,29.26,SW,220,11.0,11.0,24,0.00,,---,0.00,VWS V14.01,2013-05-15 16:21:00,
2013-05-15 09:26:00,59.9,23.0,29.26,WSW,239,11.2,12.1,24,0.00,,---,0.00,VWS V14.01,2013-05-15 16:26:00,
2013-05-15 09:31:00,61.7,23.5,29.26,WSW,246,13.9,13.9,23,0.00,,---,0.00,VWS V14.01,2013-05-15 16:31:00,
2013-05-15 09:36:00,61.0,24.0,29.26,SW,221,9.6,13.4,24,0.00,,---,0.00,VWS V14.01,2013-05-15 16:36:00,
2013-05-15 09:41:00,61.2,24.1,29.26,SSW,206,13.0,13.9,24,0.00,,---,0.00,VWS V14.01,2013-05-15 16:41:00,
2013-05-15 09:46:00,61.2,20.9,29.26,SW,224,15.2,15.2,21,0.00,,---,0.00,VWS V14.01,2013-05-15 16:46:00,
2013-05-15 09:52:00,61.7,21.4,29.26,SW,218,12.1,13.4,21,0.00,,---,0.00,VWS V14.01,2013-05-15 16:52:00,
2013-05-15 09:57:00,61.7,21.4,29.26,SW,218,14.3,16.3,21,0.00,,---,0.00,VWS V14.01,2013-05-15 16:57:00,
2013-05-15 10:03:00,62.2,21.9,29.26,WSW,242,11.0,13.4,21,0.00,,---,0.00,VWS V14.01,2013-05-15 17:03:00,
2013-05-15 10:08:00,62.6,22.1,29.26,SSW,210,13.0,15.4,21,0.00,,---,0.00,VWS V14.01,2013-05-15 17:08:00,
2013-05-15 10:13:00,63.0,22.5,29.26,SSW,202,8.7,11.6,21,0.00,,---,0.00,VWS V14.01,2013-05-15 17:13:00,
2013-05-15 10:18:00,62.8,18.7,29.26,SSW,209,13.9,17.2,18,0.00,,---,0.00,VWS V14.01,2013-05-15 17:18:00,
2013-05-15 10:23:00,65.3,20.7,29.26,SW,234,10.1,14.8,18,0.00,,---,0.00,VWS V14.01,2013-05-15 17:23:00,
2013-05-15 10:28:00,64.8,20.3,29.26,SW,214,13.4,13.4,18,0.00,,---,0.00,VWS V14.01,2013-05-15 17:28:00,
2013-05-15 10:34:00,65.7,19.7,29.26,WSW,237,10.1,13.0,17,0.00,,---,0.00,VWS V14.01,2013-05-15 17:34:00,
2013-05-15 10:39:00,65.8,19.8,29.26,SSW,195,11.0,13.9,17,0.00,,---,0.00,VWS V14.01,2013-05-15 17:39:00,
2013-05-15 10:44:00,64.4,20.0,29.26,SW,226,11.0,15.9,18,0.00,,---,0.00,VWS V14.01,2013-05-15 17:44:00,
2013-05-15 10:50:00,64.6,20.1,29.26,SW,223,11.2,15.2,18,0.00,,---,0.00,VWS V14.01,2013-05-15 17:50:00,
2013-05-15 10:56:00,65.5,19.5,29.26,WSW,238,11.6,18.6,17,0.00,,---,0.00,VWS V14.01,2013-05-15 17:56:00,
2013-05-15 11:01:00,65.7,19.7,29.26,SW,236,13.9,15.9,17,0.00,,---,0.00,VWS V14.01,2013-05-15 18:01:00,
2013-05-15 11:07:00,66.4,20.3,29.26,WSW,249,13.4,15.9,17,0.00,,---,0.00,VWS V14.01,2013-05-15 18:07:00,
2013-05-15 11:13:00,66.7,20.6,29.26,SSW,196,10.1,15.9,17,0.00,,---,0.00,VWS V14.01,2013-05-15 18:13:00,
2013-05-15 11:19:00,66.6,20.4,29.26,SSW,200,14.8,14.8,17,0.00,,---,0.00,VWS V14.01,2013-05-15 18:19:00,
2013-05-15 11:25:00,67.1,20.9,29.26,SSW,195,19.0,21.0,17,0.00,,---,0.00,VWS V14.01,2013-05-15 18:25:00,
2013-05-15 11:30:00,65.8,19.8,29.26,SW,218,13.4,19.0,17,0.00,,---,0.00,VWS V14.01,2013-05-15 18:30:00,
2013-05-15 11:35:00,66.9,17.8,29.26,SW,214,21.5,21.5,15,0.00,,---,0.00,VWS V14.01,2013-05-15 18:35:00,
2013-05-15 11:40:00,66.7,17.6,29.26,SSW,203,7.8,15.2,15,0.00,,---,0.00,VWS V14.01,2013-05-15 18:40:00,
2013-05-15 11:45:00,66.4,17.4,29.26,SSW,212,13.4,19.5,15,0.00,,---,0.00,VWS V14.01,2013-05-15 18:45:00,
2013-05-15 11:50:00,67.6,18.4,29.26,SW,222,14.3,16.3,15,0.00,,---,0.00,VWS V14.01,2013-05-15 18:50:00,
2013-05-15 11:55:00,67.1,17.9,29.26,SW,234,15.2,18.1,15,0.00,,---,0.00,VWS V14.01,2013-05-15 18:55:00,
2013-05-15 12:02:00,66.7,17.6,29.26,SW,214,14.3,15.9,15,0.00,,---,0.00,VWS V14.01,2013-05-15 19:02:00,
2013-05-15 12:08:00,67.5,18.2,29.26,SW,224,13.9,19.5,15,0.00,,---,0.00,VWS V14.01,2013-05-15 19:08:00,
2013-05-15 12:14:00,69.6,18.4,29.26,SW,218,13.0,15.2,14,0.00,,---,0.00,VWS V14.01,2013-05-15 19:14:00,
2013-05-15 12:19:00,69.1,17.9,29.26,WSW,239,13.4,17.2,14,0.00,,---,0.00,VWS V14.01,2013-05-15 19:19:00,
2013-05-15 12:26:00,67.6,18.4,29.26,SSW,210,15.9,19.5,15,0.00,,---,0.00,VWS V14.01,2013-05-15 19:26:00,
2013-05-15 12:31:00,68.9,19.4,29.26,SW,221,12.5,17.2,15,0.00,,---,0.00,VWS V14.01,2013-05-15 19:31:00,
2013-05-15 12:36:00,68.9,19.4,29.26,SW,221,14.8,17.7,15,0.00,,---,0.00,VWS V14.01,2013-05-15 19:36:00,
2013-05-15 12:41:00,68.9,19.4,29.26,WSW,253,13.9,17.7,15,0.00,,---,0.00,VWS V14.01,2013-05-15 19:41:00,
2013-05-15 12:46:00,68.5,19.1,29.26,SW,223,17.7,18.1,15,0.00,,---,0.00,VWS V14.01,2013-05-15 19:46:00,
2013-05-15 12:51:00,68.2,18.8,29.26,SSW,200,9.2,16.8,15,0.00,,---,0.00,VWS V14.01,2013-05-15 19:51:00,
2013-05-15 12:56:00,68.2,18.8,29.26,SW,228,14.8,16.3,15,0.00,,---,0.00,VWS V14.01,2013-05-15 19:56:00,
2013-05-15 13:01:00,68.5,19.1,29.26,SW,229,15.4,15.9,15,0.00,,---,0.00,VWS V14.01,2013-05-15 20:01:00,
2013-05-15 13:06:00,68.9,19.4,29.26,WSW,238,13.4,16.3,15,0.00,,---,0.00,VWS V14.01,2013-05-15 20:06:00,
2013-05-15 13:11:00,68.9,17.8,29.26,SW,225,14.8,18.6,14,0.00,,---,0.00,VWS V14.01,2013-05-15 20:11:00,
2013-05-15 13:17:00,71.4,19.8,29.26,SW,232,12.1,17.2,14,0.00,,---,0.00,VWS V14.01,2013-05-15 20:17:00,
2013-05-15 13:22:00,71.2,19.6,29.26,WSW,241,9.2,12.5,14,0.00,,---,0.00,VWS V14.01,2013-05-15 20:22:00,
2013-05-15 13:28:00,70.7,19.2,29.26,SSW,205,11.2,19.0,14,0.00,,---,0.00,VWS V14.01,2013-05-15 20:28:00,
2013-05-15 13:33:00,70.0,18.6,29.26,SW,231,15.4,17.2,14,0.00,,---,0.00,VWS V14.01,2013-05-15 20:33:00,
2013-05-15 13:38:00,69.1,17.9,29.26,SW,220,10.1,15.2,14,0.00,,---,0.00,VWS V14.01,2013-05-15 20:38:00,
2013-05-15 13:43:00,69.4,18.2,29.26,SSW,193,12.1,15.2,14,0.00,,---,0.00,VWS V14.01,2013-05-15 20:43:00,
2013-05-15 13:48:00,70.5,19.1,29.26,SW,219,15.4,15.4,14,0.00,,---,0.00,VWS V14.01,2013-05-15 20:48:00,
2013-05-15 13:53:00,71.6,19.9,29.26,SW,225,12.5,12.5,14,0.00,,---,0.00,VWS V14.01,2013-05-15 20:53:00,
2013-05-15 13:59:00,70.3,18.9,29.26,SW,220,14.3,17.7,14,0.00,,---,0.00,VWS V14.01,2013-05-15 20:59:00,
2013-05-15 14:04:00,70.9,19.4,29.26,WSW,253,19.0,19.0,14,0.00,,---,0.00,VWS V14.01,2013-05-15 21:04:00,
2013-05-15 14:09:00,70.7,19.2,29.26,SW,225,15.4,19.0,14,0.00,,---,0.00,VWS V14.01,2013-05-15 21:09:00,
2013-05-15 14:16:00,71.1,19.5,29.26,SW,235,18.1,18.6,14,0.00,,---,0.00,VWS V14.01,2013-05-15 21:16:00,
2013-05-15 14:21:00,70.0,18.6,29.23,SW,218,21.9,24.2,14,0.00,,---,0.00,VWS V14.01,2013-05-15 21:21:00,
2013-05-15 14:26:00,70.3,18.9,29.23,WSW,256,16.8,17.7,14,0.00,,---,0.00,VWS V14.01,2013-05-15 21:26:00,
2013-05-15 14:31:00,69.3,18.1,29.23,WSW,237,16.8,17.2,14,0.00,,---,0.00,VWS V14.01,2013-05-15 21:31:00,
2013-05-15 14:36:00,70.0,18.6,29.26,WSW,258,16.8,16.8,14,0.00,,---,0.00,VWS V14.01,2013-05-15 21:36:00,
2013-05-15 14:41:00,70.0,18.6,29.26,WSW,239,19.5,19.9,14,0.00,,---,0.00,VWS V14.01,2013-05-15 21:41:00,
2013-05-15 14:46:00,69.8,18.5,29.26,WSW,248,15.9,19.9,14,0.00,,---,0.00,VWS V14.01,2013-05-15 21:46:00,
2013-05-15 14:52:00,69.4,18.2,29.23,SW,217,12.5,16.8,14,0.00,,---,0.00,VWS V14.01,2013-05-15 21:52:00,
2013-05-15 14:58:00,70.0,18.6,29.23,WSW,247,17.2,17.2,14,0.00,,---,0.00,VWS V14.01,2013-05-15 21:58:00,
2013-05-15 15:04:00,69.6,18.4,29.26,WSW,251,15.4,16.8,14,0.00,,---,0.00,VWS V14.01,2013-05-15 22:04:00,
2013-05-15 15:10:00,68.7,19.2,29.26,SW,228,13.0,15.4,15,0.00,,---,0.00,VWS V14.01,2013-05-15 22:10:00,
2013-05-15 15:15:00,68.4,19.0,29.26,WSW,242,13.0,13.9,15,0.00,,---,0.00,VWS V14.01,2013-05-15 22:15:00,
2013-05-15 15:20:00,67.3,18.1,29.26,SW,235,13.0,18.1,15,0.00,,---,0.00,VWS V14.01,2013-05-15 22:20:00,
2013-05-15 15:25:00,68.2,18.8,29.26,SW,232,19.0,19.0,15,0.00,,---,0.00,VWS V14.01,2013-05-15 22:25:00,
2013-05-15 15:30:00,67.8,18.5,29.26,SW,231,14.3,18.1,15,0.00,,---,0.00,VWS V14.01,2013-05-15 22:30:00,
2013-05-15 15:35:00,66.4,17.4,29.26,SSW,199,12.1,16.3,15,0.00,,---,0.00,VWS V14.01,2013-05-15 22:35:00,
2013-05-15 15:40:00,66.7,17.6,29.26,SW,226,12.1,19.9,15,0.00,,---,0.00,VWS V14.01,2013-05-15 22:40:00,
2013-05-15 15:45:00,67.8,18.5,29.26,WSW,239,16.8,16.8,15,0.00,,---,0.00,VWS V14.01,2013-05-15 22:45:00,
2013-05-15 15:50:00,68.7,19.2,29.26,SW,221,13.0,19.5,15,0.00,,---,0.00,VWS V14.01,2013-05-15 22:50:00,
2013-05-15 15:55:00,68.2,18.8,29.26,SW,214,12.5,15.9,15,0.00,,---,0.00,VWS V14.01,2013-05-15 22:55:00,
2013-05-15 16:01:00,68.4,19.0,29.26,SW,223,14.8,18.1,15,0.00,,---,0.00,VWS V14.01,2013-05-15 23:01:00,
2013-05-15 16:07:00,67.5,18.2,29.23,WSW,238,16.3,19.9,15,0.00,,---,0.00,VWS V14.01,2013-05-15 23:07:00,
2013-05-15 16:12:00,67.6,18.4,29.23,WSW,243,15.4,17.2,15,0.00,,---,0.00,VWS V14.01,2013-05-15 23:12:00,
2013-05-15 16:17:00,67.6,18.4,29.23,SW,235,15.2,16.8,15,0.00,,---,0.00,VWS V14.01,2013-05-15 23:17:00,
2013-05-15 16:22:00,67.3,18.1,29.23,WSW,237,15.2,17.7,15,0.00,,---,0.00,VWS V14.01,2013-05-15 23:22:00,
2013-05-15 16:27:00,68.0,18.7,29.23,WSW,246,13.0,17.7,15,0.00,,---,0.00,VWS V14.01,2013-05-15 23:27:00,
2013-05-15 16:32:00,67.8,18.5,29.23,WSW,241,15.4,18.6,15,0.00,,---,0.00,VWS V14.01,2013-05-15 23:32:00,
2013-05-15 16:37:00,67.3,18.1,29.23,SW,222,11.6,17.7,15,0.00,,---,0.00,VWS V14.01,2013-05-15 23:37:00,
2013-05-15 16:42:00,66.2,17.2,29.23,SW,220,18.6,19.0,15,0.00,,---,0.00,VWS V14.01,2013-05-15 23:42:00,
2013-05-15 16:47:00,66.0,17.1,29.23,WSW,249,13.0,15.2,15,0.00,,---,0.00,VWS V14.01,2013-05-15 23:47:00,
2013-05-15 16:52:00,66.2,17.2,29.23,WSW,251,13.0,19.5,15,0.00,,---,0.00,VWS V14.01,2013-05-15 23:52:00,
2013-05-15 16:57:00,65.3,16.5,29.23,SW,221,16.3,16.3,15,0.00,,---,0.00,VWS V14.01,2013-05-15 23:57:00,
2013-05-15 17:03:00,64.2,15.6,29.23,SW,231,15.4,17.7,15,0.00,,---,0.00,VWS V14.01,2013-05-16 00:03:00,
2013-05-15 17:08:00,64.4,15.8,29.23,SW,225,16.3,16.3,15,0.00,,---,0.00,VWS V14.01,2013-05-16 00:08:00,
2013-05-15 17:13:00,64.0,15.5,29.23,SSW,205,15.9,16.3,15,0.00,,---,0.00,VWS V14.01,2013-05-16 00:13:00,
2013-05-15 17:18:00,63.3,16.4,29.23,SSW,201,12.5,14.8,16,0.00,,---,0.00,VWS V14.01,2013-05-16 00:18:00,
2013-05-15 17:23:00,63.5,15.1,29.23,SW,232,13.9,15.9,15,0.00,,---,0.00,VWS V14.01,2013-05-16 00:23:00,
2013-05-15 17:28:00,63.1,16.2,29.23,SW,225,17.7,19.5,16,0.00,,---,0.00,VWS V14.01,2013-05-16 00:28:00,
2013-05-15 17:35:00,63.1,16.2,29.23,WSW,258,13.9,17.2,16,0.00,,---,0.00,VWS V14.01,2013-05-16 00:35:00,
2013-05-15 17:40:00,62.8,15.9,29.23,South,191,13.0,17.2,16,0.00,,---,0.00,VWS V14.01,2013-05-16 00:40:00,
2013-05-15 17:45:00,63.1,16.2,29.23,WSW,245,15.2,17.2,16,0.00,,---,0.00,VWS V14.01,2013-05-16 00:45:00,
2013-05-15 17:50:00,63.0,16.1,29.23,SW,231,15.2,18.6,16,0.00,,---,0.00,VWS V14.01,2013-05-16 00:50:00,
2013-05-15 17:55:00,62.6,15.8,29.23,SSW,213,12.5,12.5,16,0.00,,---,0.00,VWS V14.01,2013-05-16 00:55:00,
2013-05-15 18:00:00,62.6,15.8,29.23,SSW,213,12.5,12.5,16,0.00,,---,0.00,VWS V14.01,2013-05-16 01:00:00,
2013-05-15 18:07:00,62.6,15.8,29.23,SSW,213,12.5,12.5,16,0.00,,---,0.00,VWS V14.01,2013-05-16 01:07:00,
2013-05-15 18:12:00,62.6,15.8,29.23,SSW,213,12.5,12.5,16,0.00,,---,0.00,VWS V14.01,2013-05-16 01:12:00,
2013-05-15 18:17:00,62.6,15.8,29.23,SSW,213,12.5,12.5,16,0.00,,---,0.00,VWS V14.01,2013-05-16 01:17:00,
2013-05-15 18:22:00,62.6,15.8,29.23,SSW,213,12.5,12.5,16,0.00,,---,0.00,VWS V14.01,2013-05-16 01:22:00,
2013-05-15 18:27:00,62.6,15.8,29.23,SSW,213,12.5,12.5,16,0.00,,---,0.00,VWS V14.01,2013-05-16 01:27:00,
2013-05-15 18:32:00,60.6,18.2,29.23,SSW,213,11.6,18.6,19,0.00,,---,0.00,VWS V14.01,2013-05-16 01:32:00,
2013-05-15 18:38:00,61.2,18.6,29.23,SW,228,11.6,15.4,19,0.00,,---,0.00,VWS V14.01,2013-05-16 01:38:00,
2013-05-15 18:43:00,60.6,18.2,29.23,SSW,206,13.9,17.7,19,0.00,,---,0.00,VWS V14.01,2013-05-16 01:43:00,
2013-05-15 18:48:00,60.3,20.2,29.23,SW,218,15.2,16.8,21,0.00,,---,0.00,VWS V14.01,2013-05-16 01:48:00,
2013-05-15 18:54:00,60.3,20.2,29.23,SSW,209,13.9,19.0,21,0.00,,---,0.00,VWS V14.01,2013-05-16 01:54:00,
2013-05-15 19:00:00,59.9,19.9,29.23,SW,218,14.8,15.9,21,0.00,,---,0.00,VWS V14.01,2013-05-16 02:00:00,
2013-05-15 19:05:00,59.4,22.6,29.23,SSW,212,15.4,17.7,24,0.00,,---,0.00,VWS V14.01,2013-05-16 02:05:00,
2013-05-15 19:10:00,58.8,22.1,29.23,SW,221,14.3,18.6,24,0.00,,---,0.00,VWS V14.01,2013-05-16 02:10:00,
2013-05-15 19:15:00,59.2,22.4,29.23,SW,229,11.0,14.8,24,0.00,,---,0.00,VWS V14.01,2013-05-16 02:15:00,
2013-05-15 19:20:00,59.0,22.3,29.23,SSW,212,11.6,16.8,24,0.00,,---,0.00,VWS V14.01,2013-05-16 02:20:00,
2013-05-15 19:25:00,58.5,22.8,29.23,SW,222,11.6,15.4,25,0.00,,---,0.00,VWS V14.01,2013-05-16 02:25:00,
2013-05-15 19:30:00,58.1,22.5,29.23,SSW,205,11.0,14.3,25,0.00,,---,0.00,VWS V14.01,2013-05-16 02:30:00,
2013-05-15 19:35:00,58.5,22.8,29.23,SW,225,12.1,14.8,25,0.00,,---,0.00,VWS V14.01,2013-05-16 02:35:00,
2013-05-15 19:40:00,58.3,22.6,29.23,WSW,239,14.3,14.3,25,0.00,,---,0.00,VWS V14.01,2013-05-16 02:40:00,
2013-05-15 19:46:00,58.1,22.5,29.23,SSW,213,12.5,14.8,25,0.00,,---,0.00,VWS V14.01,2013-05-16 02:46:00,
2013-05-15 19:51:00,57.7,23.1,29.23,SW,220,12.5,15.4,26,0.00,,---,0.00,VWS V14.01,2013-05-16 02:51:00,
2013-05-15 19:56:00,57.6,23.0,29.23,SW,226,14.8,14.8,26,0.00,,---,0.00,VWS V14.01,2013-05-16 02:56:00,
2013-05-15 20:01:00,57.4,22.8,29.23,SSW,198,7.8,11.0,26,0.00,,---,0.00,VWS V14.01,2013-05-16 03:01:00,
2013-05-15 20:07:00,57.2,22.6,29.23,SW,214,10.1,12.5,26,0.00,,---,0.00,VWS V14.01,2013-05-16 03:07:00,
2013-05-15 20:12:00,57.2,22.6,29.23,SW,226,8.7,10.1,26,0.00,,---,0.00,VWS V14.01,2013-05-16 03:12:00,
2013-05-15 20:17:00,57.0,22.5,29.23,SW,230,7.4,9.6,26,0.00,,---,0.00,VWS V14.01,2013-05-16 03:17:00,
2013-05-15 20:22:00,57.0,22.5,29.23,SSW,210,9.6,11.0,26,0.00,,---,0.00,VWS V14.01,2013-05-16 03:22:00,
2013-05-15 20:27:00,57.2,22.6,29.23,SSW,213,12.1,14.8,26,0.00,,---,0.00,VWS V14.01,2013-05-16 03:27:00,
2013-05-15 20:32:00,57.0,22.5,29.23,SW,234,17.2,17.7,26,0.00,,---,0.00,VWS V14.01,2013-05-16 03:32:00,
2013-05-15 20:37:00,56.8,22.3,29.26,SW,235,6.7,12.1,26,0.00,,---,0.00,VWS V14.01,2013-05-16 03:37:00,
2013-05-15 20:42:00,56.7,22.2,29.26,SW,234,12.1,13.9,26,0.00,,---,0.00,VWS V14.01,2013-05-16 03:42:00,
2013-05-15 20:47:00,56.8,22.3,29.26,SSW,203,10.5,11.6,26,0.00,,---,0.00,VWS V14.01,2013-05-16 03:47:00,
2013-05-15 20:52:00,56.7,23.1,29.26,SW,228,13.4,14.8,27,0.00,,---,0.00,VWS V14.01,2013-05-16 03:52:00,
2013-05-15 20:57:00,56.7,23.1,29.26,SSW,198,8.3,9.6,27,0.00,,---,0.00,VWS V14.01,2013-05-16 03:57:00,
2013-05-15 21:01:00,56.3,22.8,29.26,SW,224,11.2,14.3,27,0.00,,---,0.00,VWS V14.01,2013-05-16 04:01:00,
2013-05-15 21:02:00,56.3,22.8,29.26,SW,221,7.8,12.1,27,0.00,,---,0.00,VWS V14.01,2013-05-16 04:02:00,
2013-05-15 21:03:00,56.3,23.6,29.26,SW,231,6.9,11.0,28,0.00,,---,0.00,VWS V14.01,2013-05-16 04:03:00,
2013-05-15 21:07:00,56.1,23.5,29.26,SW,229,12.5,13.4,28,0.00,,---,0.00,VWS V14.01,2013-05-16 04:07:00,
2013-05-15 21:11:00,56.1,24.3,29.26,SW,225,9.2,11.2,29,0.00,,---,0.00,VWS V14.01,2013-05-16 04:11:00,
2013-05-15 21:16:00,55.9,24.2,29.26,SSW,200,9.2,11.6,29,0.00,,---,0.00,VWS V14.01,2013-05-16 04:16:00,
2013-05-15 21:22:00,55.8,24.8,29.26,SW,223,11.0,11.2,30,0.00,,---,0.00,VWS V14.01,2013-05-16 04:22:00,
2013-05-15 21:27:00,55.8,25.6,29.26,SSW,209,6.3,7.8,31,0.00,,---,0.00,VWS V14.01,2013-05-16 04:27:00,
2013-05-15 21:32:00,55.6,25.5,29.26,SW,220,8.3,11.6,31,0.00,,---,0.00,VWS V14.01,2013-05-16 04:32:00,
2013-05-15 21:37:00,55.6,25.5,29.26,WSW,239,12.1,12.1,31,0.00,,---,0.00,VWS V14.01,2013-05-16 04:37:00,
2013-05-15 21:42:00,55.4,26.0,29.26,SSW,209,10.1,10.1,32,0.00,,---,0.00,VWS V14.01,2013-05-16 04:42:00,
2013-05-15 21:47:00,55.4,26.0,29.26,SW,229,9.2,11.0,32,0.00,,---,0.00,VWS V14.01,2013-05-16 04:47:00,
2013-05-15 21:52:00,55.4,26.0,29.26,SSW,213,9.2,9.2,32,0.00,,---,0.00,VWS V14.01,2013-05-16 04:52:00,
2013-05-15 21:57:00,55.2,25.9,29.26,SW,217,10.1,10.5,32,0.00,,---,0.00,VWS V14.01,2013-05-16 04:57:00,
2013-05-15 22:02:00,55.2,25.9,29.26,WSW,243,11.0,15.2,32,0.00,,---,0.00,VWS V14.01,2013-05-16 05:02:00,
2013-05-15 22:07:00,55.2,25.9,29.26,SSW,194,10.5,10.5,32,0.00,,---,0.00,VWS V14.01,2013-05-16 05:07:00,
2013-05-15 22:12:00,55.0,27.2,29.26,SW,230,13.0,14.3,34,0.00,,---,0.00,VWS V14.01,2013-05-16 05:12:00,
2013-05-15 22:17:00,55.2,28.1,29.26,SW,223,10.5,15.9,35,0.00,,---,0.00,VWS V14.01,2013-05-16 05:17:00,
2013-05-15 22:22:00,55.0,27.9,29.26,SW,216,12.5,14.8,35,0.00,,---,0.00,VWS V14.01,2013-05-16 05:22:00,
2013-05-15 22:27:00,54.9,27.8,29.26,SSW,204,11.6,15.2,35,0.00,,---,0.00,VWS V14.01,2013-05-16 05:27:00,
2013-05-15 22:32:00,54.9,28.4,29.26,SW,216,13.4,16.3,36,0.00,,---,0.00,VWS V14.01,2013-05-16 05:32:00,
2013-05-15 22:37:00,54.9,28.4,29.26,SW,229,13.0,15.4,36,0.00,,---,0.00,VWS V14.01,2013-05-16 05:37:00,
2013-05-15 22:42:00,54.7,28.3,29.26,SW,231,12.5,15.2,36,0.00,,---,0.00,VWS V14.01,2013-05-16 05:42:00,
2013-05-15 22:47:00,54.7,28.3,29.26,SW,225,10.5,14.3,36,0.00,,---,0.00,VWS V14.01,2013-05-16 05:47:00,
2013-05-15 22:52:00,54.5,28.8,29.26,SW,230,10.1,11.0,37,0.00,,---,0.00,VWS V14.01,2013-05-16 05:52:00,
2013-05-15 22:57:00,54.5,28.8,29.26,SW,217,11.0,12.5,37,0.00,,---,0.00,VWS V14.01,2013-05-16 05:57:00,
2013-05-15 23:02:00,54.5,28.8,29.26,SW,222,9.2,13.0,37,0.00,,---,0.00,VWS V14.01,2013-05-16 06:02:00,
2013-05-15 23:07:00,54.5,29.4,29.26,SW,214,10.5,11.2,38,0.00,,---,0.00,VWS V14.01,2013-05-16 06:07:00,
2013-05-15 23:12:00,54.3,29.3,29.26,SW,222,7.8,10.5,38,0.00,,---,0.00,VWS V14.01,2013-05-16 06:12:00,
2013-05-15 23:17:00,54.3,29.9,29.26,SW,222,14.3,14.3,39,0.00,,---,0.00,VWS V14.01,2013-05-16 06:17:00,
2013-05-15 23:22:00,54.1,29.8,29.26,SW,231,9.2,12.1,39,0.00,,---,0.00,VWS V14.01,2013-05-16 06:22:00,
2013-05-15 23:27:00,54.0,30.2,29.26,SW,217,8.7,11.6,40,0.00,,---,0.00,VWS V14.01,2013-05-16 06:27:00,
2013-05-15 23:32:00,54.0,30.8,29.26,WSW,240,12.5,15.9,41,0.00,,---,0.00,VWS V14.01,2013-05-16 06:32:00,
2013-05-15 23:37:00,54.0,30.8,29.26,SW,222,12.5,13.9,41,0.00,,---,0.00,VWS V14.01,2013-05-16 06:37:00,
2013-05-15 23:42:00,54.0,30.8,29.26,SW,234,12.1,14.8,41,0.00,,---,0.00,VWS V14.01,2013-05-16 06:42:00,
2013-05-15 23:47:00,54.0,31.4,29.26,SW,233,11.2,11.6,42,0.00,,---,0.00,VWS V14.01,2013-05-16 06:47:00,
2013-05-15 23:52:00,54.0,30.8,29.26,WSW,245,10.1,13.9,41,0.00,,---,0.00,VWS V14.01,2013-05-16 06:52:00,
2013-05-15 23:57:00,54.0,30.8,29.26,SW,225,14.3,14.3,41,0.00,,---,0.00,VWS V14.01,2013-05-16 06:57:00,